Shawmut, Maine
Current Conditions -  °F | °C
As of 11:15 AM on Saturday 20 Dec 2014 (Local Time) from KWVL Reporting Station
Overcast Overcast  
Wind Chill: 16°   Ceiling: 1700
Heat Index: 25°   Visibility: 10mi
Dew Point: 14°   Wind: 8mph
Humidity: 64%   Direction: 20°NNE
Pressure: 30.3"   Gusts: NA
Location:  44.63°N, 69.59°W
Report Text: KWVL 201615Z 02007KT 10SM OVC017 M04/M10 A3030 RMK AO1
Loading
Personal Weather Stations






























Interactive Weather Map New forecast layout! Learn more

10-Day Weather Forecast

Advertisements
Track Severe Weather on mobile